sensor_id;sensor_type;location;lat;lon;timestamp;pressure;altitude;pressure_sealevel;temperature;humidity
10732;BME280;5417;42.686;23.244;2023-05-24T00:02:22;94104.56;;;15.44;nan
10732;BME280;5417;42.686;23.244;2023-05-24T00:04:51;94102.72;;;15.36;nan
10732;BME280;5417;42.686;23.244;2023-05-24T00:07:19;94094.69;;;15.30;nan
10732;BME280;5417;42.686;23.244;2023-05-24T00:09:46;94104.03;;;15.24;nan
10732;BME280;5417;42.686;23.244;2023-05-24T00:12:13;94097.28;;;15.22;nan
10732;BME280;5417;42.686;23.244;2023-05-24T00:14:41;94089.09;;;15.17;nan
10732;BME280;5417;42.686;23.244;2023-05-24T00:17:07;94093.53;;;15.16;nan
10732;BME280;5417;42.686;23.244;2023-05-24T00:19:37;94094.97;;;15.10;nan
10732;BME280;5417;42.686;23.244;2023-05-24T00:22:20;94097.59;;;15.10;nan
10732;BME280;5417;42.686;23.244;2023-05-24T00:24:51;94091.53;;;15.10;nan
10732;BME280;5417;42.686;23.244;2023-05-24T00:27:18;94091.66;;;15.08;nan
10732;BME280;5417;42.686;23.244;2023-05-24T00:29:45;94093.63;;;15.06;nan
10732;BME280;5417;42.686;23.244;2023-05-24T00:32:12;94088.88;;;15.02;nan
10732;BME280;5417;42.686;23.244;2023-05-24T00:34:39;94092.31;;;15.02;nan
10732;BME280;5417;42.686;23.244;2023-05-24T00:37:06;94076.25;;;14.97;nan
10732;BME280;5417;42.686;23.244;2023-05-24T00:39:34;94091.16;;;14.97;nan
10732;BME280;5417;42.686;23.244;2023-05-24T00:42:03;94080.47;;;14.90;nan
10732;BME280;5417;42.686;23.244;2023-05-24T00:44:30;94082.94;;;14.92;nan
10732;BME280;5417;42.686;23.244;2023-05-24T00:47:03;94082.44;;;14.88;nan
10732;BME280;5417;42.686;23.244;2023-05-24T00:49:31;94082.59;;;14.87;nan
10732;BME280;5417;42.686;23.244;2023-05-24T00:51:58;94083.72;;;14.84;nan
10732;BME280;5417;42.686;23.244;2023-05-24T00:54:26;94089.94;;;14.83;nan
10732;BME280;5417;42.686;23.244;2023-05-24T00:56:55;94089.94;;;14.83;nan
10732;BME280;5417;42.686;23.244;2023-05-24T00:59:22;94088.31;;;14.82;nan
10732;BME280;5417;42.686;23.244;2023-05-24T01:01:49;94087.00;;;14.86;nan
10732;BME280;5417;42.686;23.244;2023-05-24T01:04:17;94090.13;;;14.90;nan
10732;BME280;5417;42.686;23.244;2023-05-24T01:06:58;94096.53;;;14.87;nan
10732;BME280;5417;42.686;23.244;2023-05-24T01:09:33;94093.41;;;14.83;nan
10732;BME280;5417;42.686;23.244;2023-05-24T01:12:14;94103.53;;;14.78;nan
10732;BME280;5417;42.686;23.244;2023-05-24T01:14:59;94097.63;;;14.76;nan
10732;BME280;5417;42.686;23.244;2023-05-24T01:17:35;94095.47;;;14.72;nan
10732;BME280;5417;42.686;23.244;2023-05-24T01:20:04;94098.25;;;14.70;nan
10732;BME280;5417;42.686;23.244;2023-05-24T01:23:00;94107.09;;;14.69;nan
10732;BME280;5417;42.686;23.244;2023-05-24T01:25:47;94107.41;;;14.66;nan
10732;BME280;5417;42.686;23.244;2023-05-24T01:28:17;94100.69;;;14.64;nan
10732;BME280;5417;42.686;23.244;2023-05-24T01:30:46;94099.19;;;14.61;nan
10732;BME280;5417;42.686;23.244;2023-05-24T01:33:13;94101.16;;;14.59;nan
10732;BME280;5417;42.686;23.244;2023-05-24T01:35:46;94101.31;;;14.58;nan
10732;BME280;5417;42.686;23.244;2023-05-24T01:38:13;94105.19;;;14.53;nan
10732;BME280;5417;42.686;23.244;2023-05-24T01:40:43;94105.19;;;14.53;nan
10732;BME280;5417;42.686;23.244;2023-05-24T01:43:14;94106.84;;;14.55;nan
10732;BME280;5417;42.686;23.244;2023-05-24T01:45:58;94107.50;;;14.57;nan
10732;BME280;5417;42.686;23.244;2023-05-24T01:48:33;94096.91;;;14.58;nan
10732;BME280;5417;42.686;23.244;2023-05-24T01:51:06;94100.50;;;14.57;nan
10732;BME280;5417;42.686;23.244;2023-05-24T01:53:40;94099.94;;;14.53;nan
10732;BME280;5417;42.686;23.244;2023-05-24T01:56:11;94100.25;;;14.50;nan
10732;BME280;5417;42.686;23.244;2023-05-24T01:58:45;94096.50;;;14.53;nan
10732;BME280;5417;42.686;23.244;2023-05-24T02:01:21;94098.97;;;14.55;nan
10732;BME280;5417;42.686;23.244;2023-05-24T02:03:49;94090.44;;;14.52;nan
10732;BME280;5417;42.686;23.244;2023-05-24T02:06:16;94097.56;;;14.60;nan
10732;BME280;5417;42.686;23.244;2023-05-24T02:08:43;94092.31;;;14.60;nan
10732;BME280;5417;42.686;23.244;2023-05-24T02:11:10;94085.13;;;14.62;nan
10732;BME280;5417;42.686;23.244;2023-05-24T02:13:39;94085.94;;;14.63;nan
10732;BME280;5417;42.686;23.244;2023-05-24T02:16:06;94080.72;;;14.63;nan
10732;BME280;5417;42.686;23.244;2023-05-24T02:18:36;94089.22;;;14.65;nan
10732;BME280;5417;42.686;23.244;2023-05-24T02:21:03;94079.38;;;14.59;nan
10732;BME280;5417;42.686;23.244;2023-05-24T02:23:33;94076.22;;;14.55;nan
10732;BME280;5417;42.686;23.244;2023-05-24T02:26:00;94080.28;;;14.49;nan
10732;BME280;5417;42.686;23.244;2023-05-24T02:28:33;94075.69;;;14.43;nan
10732;BME280;5417;42.686;23.244;2023-05-24T02:31:02;94078.88;;;14.37;nan
10732;BME280;5417;42.686;23.244;2023-05-24T02:33:29;94077.25;;;14.36;nan
10732;BME280;5417;42.686;23.244;2023-05-24T02:35:57;94071.81;;;14.30;nan
10732;BME280;5417;42.686;23.244;2023-05-24T02:38:24;94072.94;;;14.27;nan
10732;BME280;5417;42.686;23.244;2023-05-24T02:40:51;94069.16;;;14.21;nan
10732;BME280;5417;42.686;23.244;2023-05-24T02:43:17;94078.97;;;14.19;nan
10732;BME280;5417;42.686;23.244;2023-05-24T02:45:46;94079.13;;;14.18;nan
10732;BME280;5417;42.686;23.244;2023-05-24T02:48:13;94079.59;;;14.13;nan
10732;BME280;5417;42.686;23.244;2023-05-24T02:50:40;94085.78;;;14.12;nan
10732;BME280;5417;42.686;23.244;2023-05-24T02:53:08;94083.47;;;14.09;nan
10732;BME280;5417;42.686;23.244;2023-05-24T02:55:35;94090.19;;;14.12;nan
10732;BME280;5417;42.686;23.244;2023-05-24T02:58:01;94085.94;;;14.11;nan
10732;BME280;5417;42.686;23.244;2023-05-24T03:00:28;94089.75;;;14.16;nan
10732;BME280;5417;42.686;23.244;2023-05-24T03:02:55;94092.50;;;14.15;nan
10732;BME280;5417;42.686;23.244;2023-05-24T03:05:30;94104.09;;;14.12;nan
10732;BME280;5417;42.686;23.244;2023-05-24T03:07:56;94101.66;;;14.11;nan
10732;BME280;5417;42.686;23.244;2023-05-24T03:10:25;94109.34;;;14.12;nan
10732;BME280;5417;42.686;23.244;2023-05-24T03:12:57;94111.13;;;14.12;nan
10732;BME280;5417;42.686;23.244;2023-05-24T03:15:23;94111.28;;;14.10;nan
10732;BME280;5417;42.686;23.244;2023-05-24T03:17:51;94110.63;;;14.08;nan
10732;BME280;5417;42.686;23.244;2023-05-24T03:20:17;94108.00;;;14.08;nan
10732;BME280;5417;42.686;23.244;2023-05-24T03:22:52;94114.72;;;14.11;nan
10732;BME280;5417;42.686;23.244;2023-05-24T03:25:21;94111.44;;;14.09;nan
10732;BME280;5417;42.686;23.244;2023-05-24T03:27:53;94115.03;;;14.08;nan
10732;BME280;5417;42.686;23.244;2023-05-24T03:30:20;94108.97;;;14.07;nan
10732;BME280;5417;42.686;23.244;2023-05-24T03:32:48;94119.16;;;14.10;nan
10732;BME280;5417;42.686;23.244;2023-05-24T03:35:17;94124.38;;;14.10;nan
10732;BME280;5417;42.686;23.244;2023-05-24T03:37:44;94123.00;;;14.24;nan
10732;BME280;5417;42.686;23.244;2023-05-24T03:40:12;94120.22;;;14.26;nan
10732;BME280;5417;42.686;23.244;2023-05-24T03:42:39;94121.88;;;14.27;nan
10732;BME280;5417;42.686;23.244;2023-05-24T03:45:08;94115.53;;;14.37;nan
10732;BME280;5417;42.686;23.244;2023-05-24T03:47:40;94111.13;;;14.38;nan
10732;BME280;5417;42.686;23.244;2023-05-24T03:50:07;94118.41;;;14.44;nan
10732;BME280;5417;42.686;23.244;2023-05-24T03:52:34;94115.06;;;14.60;nan
10732;BME280;5417;42.686;23.244;2023-05-24T03:55:01;94115.16;;;14.76;nan
10732;BME280;5417;42.686;23.244;2023-05-24T03:57:28;94115.63;;;14.71;nan
10732;BME280;5417;42.686;23.244;2023-05-24T03:59:55;94118.25;;;14.71;nan
10732;BME280;5417;42.686;23.244;2023-05-24T04:02:25;94115.97;;;14.76;nan
10732;BME280;5417;42.686;23.244;2023-05-24T04:04:52;94126.63;;;14.83;nan
10732;BME280;5417;42.686;23.244;2023-05-24T04:07:20;94116.50;;;14.88;nan
10732;BME280;5417;42.686;23.244;2023-05-24T04:09:48;94120.59;;;14.91;nan
10732;BME280;5417;42.686;23.244;2023-05-24T04:12:15;94119.03;;;15.06;nan
10732;BME280;5417;42.686;23.244;2023-05-24T04:14:42;94113.38;;;15.27;nan
10732;BME280;5417;42.686;23.244;2023-05-24T04:17:09;94118.44;;;15.28;nan
10732;BME280;5417;42.686;23.244;2023-05-24T04:19:38;94110.59;;;15.28;nan
10732;BME280;5417;42.686;23.244;2023-05-24T04:22:04;94120.75;;;15.31;nan
10732;BME280;5417;42.686;23.244;2023-05-24T04:24:31;94120.44;;;15.34;nan
10732;BME280;5417;42.686;23.244;2023-05-24T04:26:58;94111.91;;;15.40;nan
10732;BME280;5417;42.686;23.244;2023-05-24T04:29:25;94118.81;;;15.41;nan
10732;BME280;5417;42.686;23.244;2023-05-24T04:31:54;94126.03;;;15.56;nan
10732;BME280;5417;42.686;23.244;2023-05-24T04:34:21;94133.19;;;15.80;nan
10732;BME280;5417;42.686;23.244;2023-05-24T04:36:49;94127.44;;;15.92;nan
10732;BME280;5417;42.686;23.244;2023-05-24T04:39:17;94127.44;;;16.08;nan
10732;BME280;5417;42.686;23.244;2023-05-24T04:41:44;94134.00;;;16.21;nan
10732;BME280;5417;42.686;23.244;2023-05-24T04:44:11;94136.47;;;16.22;nan
10732;BME280;5417;42.686;23.244;2023-05-24T04:46:38;94138.06;;;16.72;nan
10732;BME280;5417;42.686;23.244;2023-05-24T04:49:05;94138.84;;;17.59;nan
10732;BME280;5417;42.686;23.244;2023-05-24T04:51:34;94139.41;;;18.60;nan
10732;BME280;5417;42.686;23.244;2023-05-24T04:54:04;94136.16;;;19.62;nan
10732;BME280;5417;42.686;23.244;2023-05-24T04:56:33;94135.41;;;20.74;nan
10732;BME280;5417;42.686;23.244;2023-05-24T04:59:00;94125.75;;;21.70;nan
10732;BME280;5417;42.686;23.244;2023-05-24T05:01:27;94127.16;;;22.54;nan
10732;BME280;5417;42.686;23.244;2023-05-24T05:03:54;94130.97;;;23.24;nan
10732;BME280;5417;42.686;23.244;2023-05-24T05:06:23;94137.22;;;23.63;nan
10732;BME280;5417;42.686;23.244;2023-05-24T05:08:50;94130.56;;;23.85;nan
10732;BME280;5417;42.686;23.244;2023-05-24T05:11:23;94130.16;;;24.19;nan
10732;BME280;5417;42.686;23.244;2023-05-24T05:13:50;94141.75;;;24.32;nan
10732;BME280;5417;42.686;23.244;2023-05-24T05:16:18;94141.16;;;24.30;nan
10732;BME280;5417;42.686;23.244;2023-05-24T05:18:45;94141.00;;;24.18;nan
10732;BME280;5417;42.686;23.244;2023-05-24T05:21:12;94138.00;;;24.08;nan
10732;BME280;5417;42.686;23.244;2023-05-24T05:23:39;94136.25;;;23.88;nan
10732;BME280;5417;42.686;23.244;2023-05-24T05:26:06;94144.47;;;23.80;nan
10732;BME280;5417;42.686;23.244;2023-05-24T05:28:34;94146.25;;;23.42;nan
10732;BME280;5417;42.686;23.244;2023-05-24T05:31:01;94148.69;;;23.43;nan
10732;BME280;5417;42.686;23.244;2023-05-24T05:33:30;94147.88;;;23.43;nan
10732;BME280;5417;42.686;23.244;2023-05-24T05:35:57;94148.09;;;23.35;nan
10732;BME280;5417;42.686;23.244;2023-05-24T05:38:23;94154.47;;;23.20;nan
10732;BME280;5417;42.686;23.244;2023-05-24T05:40:50;94147.97;;;23.03;nan
10732;BME280;5417;42.686;23.244;2023-05-24T05:43:17;94139.34;;;23.21;nan
10732;BME280;5417;42.686;23.244;2023-05-24T05:45:48;94143.22;;;23.25;nan
10732;BME280;5417;42.686;23.244;2023-05-24T05:48:18;94154.03;;;23.23;nan
10732;BME280;5417;42.686;23.244;2023-05-24T05:50:45;94152.78;;;23.46;nan
10732;BME280;5417;42.686;23.244;2023-05-24T05:53:22;94152.41;;;23.22;nan
10732;BME280;5417;42.686;23.244;2023-05-24T05:55:51;94155.84;;;23.43;nan
10732;BME280;5417;42.686;23.244;2023-05-24T05:58:22;94152.31;;;23.69;nan
10732;BME280;5417;42.686;23.244;2023-05-24T06:00:50;94156.31;;;23.84;nan
10732;BME280;5417;42.686;23.244;2023-05-24T06:03:17;94162.75;;;24.08;nan
10732;BME280;5417;42.686;23.244;2023-05-24T06:05:47;94156.03;;;24.06;nan
10732;BME280;5417;42.686;23.244;2023-05-24T06:08:13;94169.84;;;24.21;nan
10732;BME280;5417;42.686;23.244;2023-05-24T06:10:40;94156.75;;;24.19;nan
10732;BME280;5417;42.686;23.244;2023-05-24T06:13:07;94166.69;;;24.37;nan
10732;BME280;5417;42.686;23.244;2023-05-24T06:15:44;94161.94;;;24.46;nan
10732;BME280;5417;42.686;23.244;2023-05-24T06:18:12;94167.72;;;24.68;nan
10732;BME280;5417;42.686;23.244;2023-05-24T06:20:40;94163.59;;;24.72;nan
10732;BME280;5417;42.686;23.244;2023-05-24T06:23:06;94162.84;;;24.65;nan
10732;BME280;5417;42.686;23.244;2023-05-24T06:25:33;94165.28;;;24.35;nan
10732;BME280;5417;42.686;23.244;2023-05-24T06:28:00;94157.00;;;24.49;nan
10732;BME280;5417;42.686;23.244;2023-05-24T06:30:27;94156.19;;;24.49;nan
10732;BME280;5417;42.686;23.244;2023-05-24T06:32:54;94156.25;;;24.67;nan
10732;BME280;5417;42.686;23.244;2023-05-24T06:35:23;94158.50;;;24.70;nan
10732;BME280;5417;42.686;23.244;2023-05-24T06:37:50;94163.63;;;24.90;nan
10732;BME280;5417;42.686;23.244;2023-05-24T06:40:17;94154.41;;;25.17;nan
10732;BME280;5417;42.686;23.244;2023-05-24T06:42:43;94158.28;;;25.40;nan
10732;BME280;5417;42.686;23.244;2023-05-24T06:45:10;94161.75;;;25.22;nan
10732;BME280;5417;42.686;23.244;2023-05-24T06:47:37;94166.69;;;25.19;nan
10732;BME280;5417;42.686;23.244;2023-05-24T06:50:06;94156.94;;;25.31;nan
10732;BME280;5417;42.686;23.244;2023-05-24T06:52:35;94155.75;;;25.45;nan
10732;BME280;5417;42.686;23.244;2023-05-24T06:55:02;94152.81;;;25.53;nan
10732;BME280;5417;42.686;23.244;2023-05-24T06:57:29;94155.59;;;25.22;nan
10732;BME280;5417;42.686;23.244;2023-05-24T06:59:56;94155.22;;;25.18;nan
10732;BME280;5417;42.686;23.244;2023-05-24T07:02:23;94151.13;;;24.91;nan
10732;BME280;5417;42.686;23.244;2023-05-24T07:04:51;94154.28;;;24.81;nan
10732;BME280;5417;42.686;23.244;2023-05-24T07:07:18;94154.47;;;24.23;nan
10732;BME280;5417;42.686;23.244;2023-05-24T07:09:47;94155.34;;;24.17;nan
10732;BME280;5417;42.686;23.244;2023-05-24T07:12:14;94153.13;;;24.14;nan
10732;BME280;5417;42.686;23.244;2023-05-24T07:14:41;94149.16;;;24.23;nan
10732;BME280;5417;42.686;23.244;2023-05-24T07:17:07;94153.66;;;24.29;nan
10732;BME280;5417;42.686;23.244;2023-05-24T07:19:34;94147.31;;;24.30;nan
10732;BME280;5417;42.686;23.244;2023-05-24T07:22:01;94148.22;;;24.49;nan
10732;BME280;5417;42.686;23.244;2023-05-24T07:24:28;94149.88;;;25.00;nan
10732;BME280;5417;42.686;23.244;2023-05-24T07:26:56;94144.69;;;24.80;nan
10732;BME280;5417;42.686;23.244;2023-05-24T07:29:23;94152.72;;;24.48;nan
10732;BME280;5417;42.686;23.244;2023-05-24T07:31:50;94161.09;;;24.14;nan
10732;BME280;5417;42.686;23.244;2023-05-24T07:34:20;94161.31;;;24.12;nan
10732;BME280;5417;42.686;23.244;2023-05-24T07:36:49;94168.41;;;23.80;nan
10732;BME280;5417;42.686;23.244;2023-05-24T07:39:15;94161.31;;;24.12;nan
10732;BME280;5417;42.686;23.244;2023-05-24T07:41:42;94157.91;;;24.37;nan
10732;BME280;5417;42.686;23.244;2023-05-24T07:44:12;94163.97;;;24.12;nan
10732;BME280;5417;42.686;23.244;2023-05-24T07:46:39;94167.19;;;24.21;nan
10732;BME280;5417;42.686;23.244;2023-05-24T07:49:06;94159.91;;;24.48;nan
10732;BME280;5417;42.686;23.244;2023-05-24T07:51:32;94155.44;;;24.35;nan
10732;BME280;5417;42.686;23.244;2023-05-24T07:53:59;94149.38;;;24.28;nan
10732;BME280;5417;42.686;23.244;2023-05-24T07:56:26;94158.84;;;24.11;nan
10732;BME280;5417;42.686;23.244;2023-05-24T07:58:53;94154.31;;;24.18;nan
10732;BME280;5417;42.686;23.244;2023-05-24T08:01:25;94160.22;;;24.58;nan
10732;BME280;5417;42.686;23.244;2023-05-24T08:03:53;94151.50;;;24.94;nan
10732;BME280;5417;42.686;23.244;2023-05-24T08:06:20;94149.03;;;24.74;nan
10732;BME280;5417;42.686;23.244;2023-05-24T08:08:48;94151.44;;;24.58;nan
10732;BME280;5417;42.686;23.244;2023-05-24T08:11:15;94152.34;;;24.70;nan
10732;BME280;5417;42.686;23.244;2023-05-24T08:13:42;94148.97;;;24.81;nan
10732;BME280;5417;42.686;23.244;2023-05-24T08:16:09;94153.72;;;25.04;nan
10732;BME280;5417;42.686;23.244;2023-05-24T08:18:38;94149.16;;;25.47;nan
10732;BME280;5417;42.686;23.244;2023-05-24T08:21:05;94150.88;;;25.60;nan
10732;BME280;5417;42.686;23.244;2023-05-24T08:23:32;94142.63;;;25.68;nan
10732;BME280;5417;42.686;23.244;2023-05-24T08:25:59;94146.69;;;25.71;nan
10732;BME280;5417;42.686;23.244;2023-05-24T08:28:26;94141.91;;;25.91;nan
10732;BME280;5417;42.686;23.244;2023-05-24T08:30:53;94145.63;;;26.20;nan
10732;BME280;5417;42.686;23.244;2023-05-24T08:33:20;94149.31;;;25.89;nan
10732;BME280;5417;42.686;23.244;2023-05-24T08:35:49;94149.09;;;25.91;nan
10732;BME280;5417;42.686;23.244;2023-05-24T08:38:16;94144.34;;;25.93;nan
10732;BME280;5417;42.686;23.244;2023-05-24T08:40:43;94145.28;;;26.17;nan
10732;BME280;5417;42.686;23.244;2023-05-24T08:43:11;94140.03;;;26.10;nan
10732;BME280;5417;42.686;23.244;2023-05-24T08:45:38;94144.03;;;26.01;nan
10732;BME280;5417;42.686;23.244;2023-05-24T08:48:05;94140.78;;;25.99;nan
10732;BME280;5417;42.686;23.244;2023-05-24T08:50:51;94139.47;;;26.08;nan
10732;BME280;5417;42.686;23.244;2023-05-24T08:53:19;94142.28;;;26.25;nan
10732;BME280;5417;42.686;23.244;2023-05-24T08:55:48;94140.41;;;26.44;nan
10732;BME280;5417;42.686;23.244;2023-05-24T08:58:17;94139.63;;;26.55;nan
10732;BME280;5417;42.686;23.244;2023-05-24T09:00:44;94125.50;;;26.66;nan
10732;BME280;5417;42.686;23.244;2023-05-24T09:03:11;94134.91;;;26.80;nan
10732;BME280;5417;42.686;23.244;2023-05-24T09:05:40;94140.13;;;26.87;nan
10732;BME280;5417;42.686;23.244;2023-05-24T09:08:08;94131.41;;;26.91;nan
10732;BME280;5417;42.686;23.244;2023-05-24T09:10:36;94138.50;;;26.97;nan
10732;BME280;5417;42.686;23.244;2023-05-24T09:13:04;94129.78;;;26.90;nan
10732;BME280;5417;42.686;23.244;2023-05-24T09:15:32;94146.84;;;26.78;nan
10732;BME280;5417;42.686;23.244;2023-05-24T09:17:59;94144.41;;;26.64;nan
10732;BME280;5417;42.686;23.244;2023-05-24T09:20:26;94136.28;;;26.59;nan
10732;BME280;5417;42.686;23.244;2023-05-24T09:22:53;94132.69;;;26.77;nan
10732;BME280;5417;42.686;23.244;2023-05-24T09:25:26;94129.56;;;26.80;nan
10732;BME280;5417;42.686;23.244;2023-05-24T09:27:54;94132.81;;;26.82;nan
10732;BME280;5417;42.686;23.244;2023-05-24T09:30:21;94130.59;;;26.79;nan
10732;BME280;5417;42.686;23.244;2023-05-24T09:32:56;94134.34;;;26.36;nan
10732;BME280;5417;42.686;23.244;2023-05-24T09:35:23;94133.03;;;26.57;nan
10732;BME280;5417;42.686;23.244;2023-05-24T09:37:53;94128.28;;;26.71;nan
10732;BME280;5417;42.686;23.244;2023-05-24T09:40:23;94128.88;;;26.85;nan
10732;BME280;5417;42.686;23.244;2023-05-24T09:43:02;94120.38;;;26.88;nan
10732;BME280;5417;42.686;23.244;2023-05-24T09:45:29;94120.03;;;26.84;nan
10732;BME280;5417;42.686;23.244;2023-05-24T09:47:56;94123.88;;;26.77;nan
10732;BME280;5417;42.686;23.244;2023-05-24T09:50:25;94118.94;;;26.50;nan
10732;BME280;5417;42.686;23.244;2023-05-24T09:52:52;94124.03;;;26.52;nan
10732;BME280;5417;42.686;23.244;2023-05-24T09:55:21;94121.06;;;26.60;nan
10732;BME280;5417;42.686;23.244;2023-05-24T09:58:00;94118.06;;;26.80;nan
10732;BME280;5417;42.686;23.244;2023-05-24T10:00:28;94112.59;;;26.86;nan
10732;BME280;5417;42.686;23.244;2023-05-24T10:03:02;94108.19;;;26.80;nan
10732;BME280;5417;42.686;23.244;2023-05-24T10:05:30;94107.50;;;26.73;nan
10732;BME280;5417;42.686;23.244;2023-05-24T10:07:57;94105.28;;;26.93;nan
10732;BME280;5417;42.686;23.244;2023-05-24T10:10:26;94111.91;;;26.91;nan
10732;BME280;5417;42.686;23.244;2023-05-24T10:12:56;94108.66;;;26.65;nan
10732;BME280;5417;42.686;23.244;2023-05-24T10:15:24;94102.25;;;26.55;nan
10732;BME280;5417;42.686;23.244;2023-05-24T10:17:52;94098.63;;;26.49;nan
10732;BME280;5417;42.686;23.244;2023-05-24T10:20:19;94108.53;;;26.60;nan
10732;BME280;5417;42.686;23.244;2023-05-24T10:22:50;94099.50;;;26.31;nan
10732;BME280;5417;42.686;23.244;2023-05-24T10:25:20;94101.88;;;26.39;nan
10732;BME280;5417;42.686;23.244;2023-05-24T10:27:51;94105.06;;;26.60;nan
10732;BME280;5417;42.686;23.244;2023-05-24T10:30:28;94103.25;;;26.42;nan
10732;BME280;5417;42.686;23.244;2023-05-24T10:32:58;94085.97;;;26.45;nan
10732;BME280;5417;42.686;23.244;2023-05-24T10:35:27;94104.75;;;26.38;nan
10732;BME280;5417;42.686;23.244;2023-05-24T10:37:55;94102.25;;;26.13;nan
10732;BME280;5417;42.686;23.244;2023-05-24T10:40:22;94094.50;;;26.23;nan
10732;BME280;5417;42.686;23.244;2023-05-24T10:42:51;94082.78;;;26.24;nan
10732;BME280;5417;42.686;23.244;2023-05-24T10:45:40;94087.63;;;26.16;nan
10732;BME280;5417;42.686;23.244;2023-05-24T10:48:15;94084.03;;;26.22;nan
10732;BME280;5417;42.686;23.244;2023-05-24T10:50:59;94070.25;;;26.25;nan
10732;BME280;5417;42.686;23.244;2023-05-24T10:53:26;94082.38;;;26.39;nan
10732;BME280;5417;42.686;23.244;2023-05-24T10:55:54;94071.94;;;26.49;nan
10732;BME280;5417;42.686;23.244;2023-05-24T10:58:26;94071.13;;;26.49;nan
10732;BME280;5417;42.686;23.244;2023-05-24T11:00:56;94076.34;;;26.44;nan
10732;BME280;5417;42.686;23.244;2023-05-24T11:03:23;94070.28;;;26.36;nan
10732;BME280;5417;42.686;23.244;2023-05-24T11:05:51;94062.53;;;26.47;nan
10732;BME280;5417;42.686;23.244;2023-05-24T11:08:24;94060.09;;;26.45;nan
10732;BME280;5417;42.686;23.244;2023-05-24T11:11:01;94063.25;;;26.54;nan
10732;BME280;5417;42.686;23.244;2023-05-24T11:13:30;94057.19;;;26.47;nan
10732;BME280;5417;42.686;23.244;2023-05-24T11:15:59;94060.44;;;26.49;nan
10732;BME280;5417;42.686;23.244;2023-05-24T11:18:27;94058.47;;;26.44;nan
10732;BME280;5417;42.686;23.244;2023-05-24T11:20:54;94062.94;;;26.32;nan
10732;BME280;5417;42.686;23.244;2023-05-24T11:23:22;94059.38;;;26.38;nan
10732;BME280;5417;42.686;23.244;2023-05-24T11:25:50;94047.31;;;26.35;nan
10732;BME280;5417;42.686;23.244;2023-05-24T11:28:17;94050.34;;;26.39;nan
10732;BME280;5417;42.686;23.244;2023-05-24T11:30:45;94046.13;;;26.31;nan
10732;BME280;5417;42.686;23.244;2023-05-24T11:33:14;94048.31;;;26.11;nan
10732;BME280;5417;42.686;23.244;2023-05-24T11:35:43;94047.72;;;26.21;nan
10732;BME280;5417;42.686;23.244;2023-05-24T11:38:10;94045.53;;;26.29;nan
10732;BME280;5417;42.686;23.244;2023-05-24T11:40:38;94036.38;;;26.25;nan
10732;BME280;5417;42.686;23.244;2023-05-24T11:43:10;94037.13;;;26.44;nan
10732;BME280;5417;42.686;23.244;2023-05-24T11:45:40;94035.25;;;26.33;nan
10732;BME280;5417;42.686;23.244;2023-05-24T11:48:07;94040.78;;;26.31;nan
10732;BME280;5417;42.686;23.244;2023-05-24T11:50:40;94034.41;;;26.21;nan
10732;BME280;5417;42.686;23.244;2023-05-24T11:53:09;94033.59;;;26.20;nan
10732;BME280;5417;42.686;23.244;2023-05-24T11:55:36;94034.41;;;26.21;nan
10732;BME280;5417;42.686;23.244;2023-05-24T11:58:06;94030.69;;;26.22;nan
10732;BME280;5417;42.686;23.244;2023-05-24T12:00:36;94029.63;;;26.11;nan
10732;BME280;5417;42.686;23.244;2023-05-24T12:03:03;94026.69;;;26.01;nan
10732;BME280;5417;42.686;23.244;2023-05-24T12:05:32;94033.56;;;26.08;nan
10732;BME280;5417;42.686;23.244;2023-05-24T12:08:03;94024.75;;;26.20;nan
10732;BME280;5417;42.686;23.244;2023-05-24T12:10:32;94031.84;;;26.26;nan
10732;BME280;5417;42.686;23.244;2023-05-24T12:12:59;94024.31;;;26.23;nan
10732;BME280;5417;42.686;23.244;2023-05-24T12:15:26;94017.44;;;26.03;nan
10732;BME280;5417;42.686;23.244;2023-05-24T12:17:53;94029.56;;;25.99;nan
10732;BME280;5417;42.686;23.244;2023-05-24T12:20:21;94020.16;;;25.85;nan
10732;BME280;5417;42.686;23.244;2023-05-24T12:22:48;94020.72;;;25.87;nan
10732;BME280;5417;42.686;23.244;2023-05-24T12:25:18;94009.94;;;25.82;nan
10732;BME280;5417;42.686;23.244;2023-05-24T12:27:46;94006.09;;;25.78;nan
10732;BME280;5417;42.686;23.244;2023-05-24T12:30:14;94002.78;;;25.64;nan
10732;BME280;5417;42.686;23.244;2023-05-24T12:32:46;93996.97;;;25.56;nan
10732;BME280;5417;42.686;23.244;2023-05-24T12:35:13;94000.03;;;25.41;nan
10732;BME280;5417;42.686;23.244;2023-05-24T12:37:42;93994.56;;;25.36;nan
10732;BME280;5417;42.686;23.244;2023-05-24T12:40:17;93997.03;;;25.49;nan
10732;BME280;5417;42.686;23.244;2023-05-24T12:42:45;93991.78;;;25.61;nan
10732;BME280;5417;42.686;23.244;2023-05-24T12:45:15;93990.38;;;25.58;nan
10732;BME280;5417;42.686;23.244;2023-05-24T12:47:48;93991.31;;;25.64;nan
10732;BME280;5417;42.686;23.244;2023-05-24T12:50:16;93984.09;;;25.83;nan
10732;BME280;5417;42.686;23.244;2023-05-24T12:52:43;93990.91;;;25.67;nan
10732;BME280;5417;42.686;23.244;2023-05-24T12:55:12;93986.91;;;25.58;nan
10732;BME280;5417;42.686;23.244;2023-05-24T12:57:42;93982.66;;;25.68;nan
10732;BME280;5417;42.686;23.244;2023-05-24T13:00:10;93985.75;;;25.65;nan
10732;BME280;5417;42.686;23.244;2023-05-24T13:02:38;93984.91;;;25.83;nan
10732;BME280;5417;42.686;23.244;2023-05-24T13:05:07;93986.63;;;25.77;nan
10732;BME280;5417;42.686;23.244;2023-05-24T13:07:34;93980.00;;;25.68;nan
10732;BME280;5417;42.686;23.244;2023-05-24T13:10:01;93979.22;;;25.79;nan
10732;BME280;5417;42.686;23.244;2023-05-24T13:12:28;93969.25;;;25.75;nan
10732;BME280;5417;42.686;23.244;2023-05-24T13:14:57;93974.94;;;25.90;nan
10732;BME280;5417;42.686;23.244;2023-05-24T13:17:24;93970.19;;;25.92;nan
10732;BME280;5417;42.686;23.244;2023-05-24T13:19:51;93969.03;;;25.88;nan
10732;BME280;5417;42.686;23.244;2023-05-24T13:22:18;93969.69;;;25.72;nan
10732;BME280;5417;42.686;23.244;2023-05-24T13:24:45;93976.00;;;25.59;nan
10732;BME280;5417;42.686;23.244;2023-05-24T13:27:13;93965.25;;;25.36;nan
10732;BME280;5417;42.686;23.244;2023-05-24T13:29:40;93964.53;;;25.29;nan
10732;BME280;5417;42.686;23.244;2023-05-24T13:32:08;93960.97;;;25.35;nan